createdAt,value
2023-05-11T00:00:12.367Z,100701.75
2023-05-11T00:02:40.194Z,100701.97
2023-05-11T00:05:08.732Z,100698.22
2023-05-11T00:07:36.504Z,100702.84
2023-05-11T00:10:04.244Z,100706.84
2023-05-11T00:12:31.988Z,100701.38
2023-05-11T00:14:59.643Z,100704.78
2023-05-11T00:17:28.726Z,100705.72
2023-05-11T00:19:56.387Z,100695.38
2023-05-11T00:22:24.108Z,100702.84
2023-05-11T00:24:51.780Z,100691.25
2023-05-11T00:27:19.883Z,100697.72
2023-05-11T00:29:47.556Z,100690.47
2023-05-11T00:32:15.391Z,100694.72
2023-05-11T00:34:44.446Z,100693.34
2023-05-11T00:37:12.112Z,100697.28
2023-05-11T00:39:40.633Z,100700.03
2023-05-11T00:42:08.429Z,100700.06
2023-05-11T00:44:36.097Z,100700.63
2023-05-11T00:47:04.009Z,100699.56
2023-05-11T00:49:32.182Z,100692.88
2023-05-11T00:52:03.083Z,100694.13
2023-05-11T00:54:31.372Z,100691.09
2023-05-11T00:56:59.085Z,100695.31
2023-05-11T00:59:26.817Z,100709.44
2023-05-11T01:01:54.613Z,100704.69
2023-05-11T01:04:22.413Z,100699.66
2023-05-11T01:06:53.972Z,100707.03
2023-05-11T01:09:44.400Z,100700.88
2023-05-11T01:12:16.353Z,100694.78
2023-05-11T01:14:50.204Z,100696.47
2023-05-11T01:17:22.119Z,100695.78
2023-05-11T01:19:56.621Z,100691.94
2023-05-11T01:22:32.468Z,100700.88
2023-05-11T01:25:22.929Z,100701.94
2023-05-11T01:28:16.781Z,100706.16
2023-05-11T01:30:49.727Z,100704.94
2023-05-11T01:33:17.787Z,100704.94
2023-05-11T01:35:49.620Z,100702.63
2023-05-11T01:38:20.498Z,100693.28
2023-05-11T01:40:51.620Z,100704.72
2023-05-11T01:43:22.577Z,100709.88
2023-05-11T01:45:52.809Z,100712.03
2023-05-11T01:48:23.866Z,100704.00
2023-05-11T01:50:52.657Z,100701.78
2023-05-11T01:53:20.832Z,100710.19
2023-05-11T01:55:49.921Z,100701.50
2023-05-11T01:58:18.544Z,100702.31
2023-05-11T02:00:46.643Z,100700.84
2023-05-11T02:03:16.814Z,100700.44
2023-05-11T02:05:45.209Z,100705.19
2023-05-11T02:08:13.700Z,100708.91
2023-05-11T02:10:42.243Z,100709.31
2023-05-11T02:13:10.917Z,100715.03
2023-05-11T02:15:40.485Z,100718.00
2023-05-11T02:18:09.244Z,100712.50
2023-05-11T02:20:40.536Z,100716.63
2023-05-11T02:23:09.362Z,100722.44
2023-05-11T02:25:37.812Z,100717.19
2023-05-11T02:28:06.019Z,100724.59
2023-05-11T02:30:34.076Z,100730.53
2023-05-11T02:33:06.043Z,100724.28
2023-05-11T02:35:36.993Z,100725.44
2023-05-11T02:38:06.210Z,100727.56
2023-05-11T02:40:35.277Z,100728.84
2023-05-11T02:43:10.203Z,100728.41
2023-05-11T02:45:38.539Z,100728.63
2023-05-11T02:48:09.219Z,100720.47
2023-05-11T02:50:38.709Z,100728.22
2023-05-11T02:53:09.116Z,100726.84
2023-05-11T02:55:36.775Z,100726.53
2023-05-11T02:58:05.132Z,100720.16
2023-05-11T03:00:33.063Z,100730.97
2023-05-11T03:03:01.050Z,100735.53
2023-05-11T03:05:29.119Z,100732.66
2023-05-11T03:07:59.368Z,100735.31
2023-05-11T03:10:28.960Z,100728.09
2023-05-11T03:12:56.969Z,100730.75
2023-05-11T03:15:25.327Z,100728.41
2023-05-11T03:17:53.542Z,100724.19
2023-05-11T03:20:22.304Z,100726.94
2023-05-11T03:22:50.531Z,100726.00
2023-05-11T03:25:18.418Z,100736.38
2023-05-11T03:27:47.774Z,100733.09
2023-05-11T03:30:16.986Z,100722.19
2023-05-11T03:32:44.920Z,100729.03
2023-05-11T03:35:12.699Z,100734.44
2023-05-11T03:37:40.560Z,100731.38
2023-05-11T03:40:10.399Z,100731.69
2023-05-11T03:42:39.234Z,100739.28
2023-05-11T03:45:09.642Z,100743.13
2023-05-11T03:47:37.502Z,100740.91
2023-05-11T03:50:06.172Z,100741.72
2023-05-11T03:52:33.916Z,100744.47
2023-05-11T03:55:01.677Z,100731.16
2023-05-11T03:57:29.943Z,100732.66
2023-05-11T03:59:57.676Z,100726.94
2023-05-11T04:02:26.800Z,100733.94
2023-05-11T04:04:54.540Z,100735.00
2023-05-11T04:07:22.266Z,100732.66
2023-05-11T04:09:49.947Z,100736.47
2023-05-11T04:12:17.659Z,100739.00
2023-05-11T04:14:45.392Z,100735.22
2023-05-11T04:17:13.125Z,100741.56
2023-05-11T04:19:42.217Z,100741.25
2023-05-11T04:22:12.122Z,100735.38
2023-05-11T04:24:39.874Z,100734.88
2023-05-11T04:27:07.555Z,100739.88
2023-05-11T04:29:35.551Z,100737.53
2023-05-11T04:32:03.247Z,100733.50
2023-05-11T04:34:30.914Z,100736.59
2023-05-11T04:36:59.988Z,100730.44
2023-05-11T04:39:27.674Z,100743.06
2023-05-11T04:41:55.383Z,100743.81
2023-05-11T04:44:23.085Z,100734.91
2023-05-11T04:46:51.010Z,100737.09
2023-05-11T04:49:18.780Z,100743.59
2023-05-11T04:51:46.462Z,100754.31
2023-05-11T04:54:15.596Z,100748.56
2023-05-11T04:56:43.347Z,100749.97
2023-05-11T04:59:11.312Z,100744.34
2023-05-11T05:01:39.268Z,100755.13
2023-05-11T05:04:07.040Z,100758.09
2023-05-11T05:06:34.814Z,100774.38
2023-05-11T05:09:02.522Z,100764.78
2023-05-11T05:11:32.207Z,100764.31
2023-05-11T05:13:59.952Z,100766.91
2023-05-11T05:16:28.159Z,100774.81
2023-05-11T05:18:56.703Z,100775.44
2023-05-11T05:21:24.372Z,100780.53
2023-05-11T05:23:52.101Z,100786.78
2023-05-11T05:26:19.796Z,100786.22
2023-05-11T05:28:48.901Z,100792.16
2023-05-11T05:31:16.623Z,100798.59
2023-05-11T05:33:44.433Z,100797.06
2023-05-11T05:36:12.099Z,100817.25
2023-05-11T05:38:39.798Z,100809.19
2023-05-11T05:41:07.513Z,100803.72
2023-05-11T05:43:35.242Z,100811.50
2023-05-11T05:46:04.429Z,100817.84
2023-05-11T05:48:32.172Z,100807.69
2023-05-11T05:51:00.742Z,100820.44
2023-05-11T05:53:28.439Z,100831.41
2023-05-11T05:55:56.178Z,100820.00
2023-05-11T05:58:23.804Z,100817.38
2023-05-11T06:00:51.847Z,100820.16
2023-05-11T06:03:21.777Z,100805.81
2023-05-11T06:05:49.532Z,100814.78
2023-05-11T06:08:17.195Z,100824.50
2023-05-11T06:10:44.878Z,100825.88
2023-05-11T06:13:12.656Z,100833.88
2023-05-11T06:15:43.201Z,100837.06
2023-05-11T06:18:11.738Z,100830.66
2023-05-11T06:20:40.742Z,100836.03
2023-05-11T06:23:08.537Z,100831.84
2023-05-11T06:25:36.421Z,100844.25
2023-05-11T06:28:04.166Z,100832.38
2023-05-11T06:30:31.908Z,100821.50
2023-05-11T06:32:59.674Z,100813.81
2023-05-11T06:35:27.443Z,100819.44
2023-05-11T06:37:56.508Z,100811.94
2023-05-11T06:40:25.180Z,100821.72
2023-05-11T06:42:52.921Z,100823.53
2023-05-11T06:45:20.621Z,100821.78
2023-05-11T06:47:48.472Z,100835.50
2023-05-11T06:50:16.550Z,100838.72
2023-05-11T06:52:44.391Z,100826.09
2023-05-11T06:55:15.108Z,100840.66
2023-05-11T06:57:42.748Z,100834.31
2023-05-11T07:00:11.590Z,100814.72
2023-05-11T07:02:39.304Z,100822.09
2023-05-11T07:05:07.349Z,100831.94
2023-05-11T07:07:35.033Z,100828.13
2023-05-11T07:10:02.716Z,100827.50
2023-05-11T07:12:32.022Z,100836.16
2023-05-11T07:14:59.787Z,100850.13
2023-05-11T07:17:28.645Z,100857.00
2023-05-11T07:19:56.364Z,100845.28
2023-05-11T07:22:24.029Z,100849.97
2023-05-11T07:24:51.753Z,100855.50
2023-05-11T07:27:19.411Z,100859.09
2023-05-11T07:29:48.702Z,100852.56
2023-05-11T07:32:16.397Z,100844.25
2023-05-11T07:34:45.810Z,100847.47
2023-05-11T07:37:13.456Z,100843.94
2023-05-11T07:39:41.167Z,100842.25
2023-05-11T07:42:08.871Z,100849.22
2023-05-11T07:44:36.716Z,100838.56
2023-05-11T07:47:05.942Z,100851.25
2023-05-11T07:49:42.866Z,100847.41
2023-05-11T07:52:11.660Z,100849.09
2023-05-11T07:54:40.282Z,100848.53
2023-05-11T07:57:08.125Z,100856.84
2023-05-11T07:59:36.566Z,100856.88
2023-05-11T08:02:07.513Z,100863.28
2023-05-11T08:04:36.129Z,100854.34
2023-05-11T08:07:04.122Z,100851.13
2023-05-11T08:09:32.332Z,100853.19
2023-05-11T08:12:01.699Z,100857.22
2023-05-11T08:14:29.506Z,100850.59
2023-05-11T08:16:57.199Z,100873.34
2023-05-11T08:19:26.256Z,100870.69
2023-05-11T08:21:53.993Z,100860.50
2023-05-11T08:24:21.691Z,100865.91
2023-05-11T08:26:49.807Z,100876.16
2023-05-11T08:29:17.480Z,100874.31
2023-05-11T08:31:45.329Z,100872.94
2023-05-11T08:34:19.158Z,100875.75
2023-05-11T08:36:49.037Z,100869.22
2023-05-11T08:39:28.302Z,100872.59
2023-05-11T08:42:05.205Z,100852.53
2023-05-11T08:44:34.000Z,100839.59
2023-05-11T08:47:21.294Z,100845.03
2023-05-11T08:49:49.570Z,100850.97
2023-05-11T08:52:19.824Z,100854.94
2023-05-11T08:54:47.968Z,100863.28
2023-05-11T08:57:16.636Z,100875.19
2023-05-11T08:59:46.055Z,100871.66
2023-05-11T09:02:17.649Z,100874.78
2023-05-11T09:04:48.330Z,100873.00
2023-05-11T09:07:18.453Z,100869.31
2023-05-11T09:09:47.122Z,100870.00
2023-05-11T09:12:14.941Z,100866.22
2023-05-11T09:14:42.739Z,100863.34
2023-05-11T09:17:10.512Z,100865.97
2023-05-11T09:19:38.248Z,100867.88
2023-05-11T09:22:06.530Z,100853.25
2023-05-11T09:24:35.555Z,100864.50
2023-05-11T09:27:10.024Z,100857.47
2023-05-11T09:29:37.722Z,100856.88
2023-05-11T09:32:06.088Z,100852.38
2023-05-11T09:34:33.751Z,100851.19
2023-05-11T09:37:01.427Z,100841.97
2023-05-11T09:39:38.286Z,100849.69
2023-05-11T09:42:17.744Z,100862.22
2023-05-11T09:44:46.098Z,100849.38
2023-05-11T09:47:14.964Z,100847.84
2023-05-11T09:49:44.117Z,100862.06
2023-05-11T09:52:12.566Z,100868.53
2023-05-11T09:54:44.843Z,100863.28
2023-05-11T09:57:27.401Z,100871.88
2023-05-11T09:59:56.453Z,100863.03
2023-05-11T10:02:25.209Z,100867.78
2023-05-11T10:04:54.151Z,100863.91
2023-05-11T10:07:26.358Z,100857.34
2023-05-11T10:09:55.253Z,100849.25
2023-05-11T10:12:24.314Z,100859.91
2023-05-11T10:14:55.969Z,100851.13
2023-05-11T10:17:23.824Z,100853.66
2023-05-11T10:19:51.709Z,100850.91
2023-05-11T10:22:19.695Z,100851.34
2023-05-11T10:24:47.908Z,100842.97
2023-05-11T10:27:15.610Z,100847.09
2023-05-11T10:29:43.854Z,100845.25
2023-05-11T10:32:13.110Z,100848.75
2023-05-11T10:34:41.015Z,100852.88
2023-05-11T10:37:09.685Z,100848.63
2023-05-11T10:39:38.589Z,100843.72
2023-05-11T10:42:16.893Z,100842.75
2023-05-11T10:44:59.899Z,100850.44
2023-05-11T10:48:18.580Z,100850.34
2023-05-11T10:50:54.970Z,100861.06
2023-05-11T10:53:49.529Z,100868.75
2023-05-11T10:56:35.471Z,100876.50
2023-05-11T10:59:20.843Z,100873.53
2023-05-11T11:01:52.253Z,100881.50
2023-05-11T11:04:21.668Z,100878.00
2023-05-11T11:07:05.026Z,100877.22
2023-05-11T11:09:57.276Z,100884.25
2023-05-11T11:12:26.890Z,100883.34
2023-05-11T11:14:56.852Z,100879.16
2023-05-11T11:17:27.327Z,100874.94
2023-05-11T11:19:57.325Z,100873.44
2023-05-11T11:22:46.854Z,100867.88
2023-05-11T11:25:16.144Z,100871.25
2023-05-11T11:27:58.245Z,100881.31
2023-05-11T11:30:28.821Z,100879.22
2023-05-11T11:32:57.912Z,100876.75
2023-05-11T11:35:48.661Z,100880.41
2023-05-11T11:38:18.066Z,100869.41
2023-05-11T11:40:51.180Z,100861.88
2023-05-11T11:43:20.278Z,100875.00
2023-05-11T11:45:52.338Z,100880.81
2023-05-11T11:48:24.377Z,100876.22
2023-05-11T11:51:04.126Z,100870.63
2023-05-11T11:54:05.661Z,100873.56
2023-05-11T11:56:46.367Z,100869.09
2023-05-11T11:59:16.008Z,100876.53
2023-05-11T12:01:45.370Z,100872.81
2023-05-11T12:04:33.336Z,100878.91
2023-05-11T12:07:04.512Z,100890.94
2023-05-11T12:09:32.667Z,100884.78
2023-05-11T12:12:02.368Z,100886.19
2023-05-11T12:14:31.476Z,100873.31
2023-05-11T12:17:03.509Z,100881.75
2023-05-11T12:19:31.860Z,100886.59
2023-05-11T12:21:59.528Z,100894.16
2023-05-11T12:24:28.561Z,100859.28
2023-05-11T12:26:57.673Z,100873.38
2023-05-11T12:29:25.927Z,100875.44
2023-05-11T12:31:53.936Z,100887.88
2023-05-11T12:34:22.653Z,100863.91
2023-05-11T12:36:51.625Z,100875.03
2023-05-11T12:39:20.979Z,100888.53
2023-05-11T12:41:51.457Z,100872.56
2023-05-11T12:44:19.950Z,100874.63
2023-05-11T12:46:48.944Z,100856.38
2023-05-11T12:49:24.631Z,100857.22
2023-05-11T12:51:53.814Z,100864.97
2023-05-11T12:54:32.856Z,100872.81
2023-05-11T12:57:02.952Z,100868.81
2023-05-11T12:59:37.384Z,100867.88
2023-05-11T13:02:23.207Z,100878.69
2023-05-11T13:04:50.952Z,100877.38
2023-05-11T13:07:25.705Z,100863.44
2023-05-11T13:09:57.477Z,100881.00
2023-05-11T13:12:27.664Z,100855.84
2023-05-11T13:15:06.912Z,100870.41
2023-05-11T13:17:36.569Z,100884.00
2023-05-11T13:20:18.182Z,100857.06
2023-05-11T13:22:46.093Z,100873.19
2023-05-11T13:25:15.180Z,100882.59
2023-05-11T13:27:44.340Z,100872.97
2023-05-11T13:30:12.617Z,100885.41
2023-05-11T13:32:40.797Z,100872.66
2023-05-11T13:35:09.112Z,100874.31
2023-05-11T13:37:36.788Z,100869.47
2023-05-11T13:40:05.073Z,100872.03
2023-05-11T13:42:33.174Z,100875.53
2023-05-11T13:45:02.464Z,100866.06
2023-05-11T13:47:30.134Z,100873.22
2023-05-11T13:49:58.922Z,100864.97
2023-05-11T13:52:26.645Z,100870.78
2023-05-11T13:54:54.369Z,100867.50
2023-05-11T13:57:22.100Z,100870.44
2023-05-11T13:59:49.893Z,100865.28
2023-05-11T14:02:19.549Z,100866.69
2023-05-11T14:04:47.263Z,100866.31
2023-05-11T14:07:15.342Z,100862.25
2023-05-11T14:09:43.740Z,100864.16
2023-05-11T14:12:11.778Z,100855.22
2023-05-11T14:14:39.467Z,100871.88
2023-05-11T14:17:07.319Z,100849.97
2023-05-11T14:19:36.967Z,100858.31
2023-05-11T14:22:04.786Z,100852.50
2023-05-11T14:24:32.602Z,100854.84
2023-05-11T14:27:00.383Z,100866.53
2023-05-11T14:29:28.085Z,100857.94
2023-05-11T14:31:56.332Z,100847.59
2023-05-11T14:34:23.979Z,100858.47
2023-05-11T14:36:53.387Z,100850.16
2023-05-11T14:39:21.397Z,100853.66
2023-05-11T14:41:49.091Z,100844.00
2023-05-11T14:44:16.801Z,100856.34
2023-05-11T14:46:44.661Z,100875.22
2023-05-11T14:49:12.466Z,100859.28
2023-05-11T14:51:40.139Z,100840.22
2023-05-11T14:54:09.133Z,100846.16
2023-05-11T14:56:36.938Z,100849.69
2023-05-11T14:59:04.726Z,100850.41
2023-05-11T15:01:32.413Z,100847.84
2023-05-11T15:04:00.313Z,100849.22
2023-05-11T15:06:28.676Z,100871.03
2023-05-11T15:08:56.411Z,100853.41
2023-05-11T15:11:26.099Z,100837.13
2023-05-11T15:13:53.805Z,100852.50
2023-05-11T15:16:21.528Z,100852.91
2023-05-11T15:18:49.322Z,100846.59
2023-05-11T15:21:17.068Z,100843.81
2023-05-11T15:23:44.780Z,100860.06
2023-05-11T15:26:14.388Z,100855.19
2023-05-11T15:28:43.416Z,100856.94
2023-05-11T15:31:11.079Z,100857.19
2023-05-11T15:33:39.456Z,100857.50
2023-05-11T15:36:12.763Z,100871.22
2023-05-11T15:38:40.835Z,100864.13
2023-05-11T15:41:08.986Z,100872.72
2023-05-11T15:43:36.728Z,100868.25
2023-05-11T15:46:06.956Z,100868.75
2023-05-11T15:48:34.704Z,100875.16
2023-05-11T15:51:02.859Z,100879.81
2023-05-11T15:53:30.646Z,100875.34
2023-05-11T15:55:58.416Z,100876.72
2023-05-11T15:58:26.125Z,100871.75
2023-05-11T16:00:53.850Z,100877.59
2023-05-11T16:03:23.055Z,100879.06
2023-05-11T16:05:50.863Z,100874.00
2023-05-11T16:08:18.848Z,100881.63
2023-05-11T16:10:46.748Z,100885.22
2023-05-11T16:13:14.399Z,100878.75
2023-05-11T16:15:42.133Z,100885.25
2023-05-11T16:18:09.948Z,100878.56
2023-05-11T16:20:39.224Z,100876.84
2023-05-11T16:23:06.945Z,100879.81
2023-05-11T16:25:34.637Z,100886.81
2023-05-11T16:28:02.413Z,100882.41
2023-05-11T16:30:30.305Z,100883.97
2023-05-11T16:32:58.236Z,100883.22
2023-05-11T16:35:25.919Z,100886.28
2023-05-11T16:37:56.611Z,100879.72
2023-05-11T16:40:24.447Z,100885.88
2023-05-11T16:42:52.198Z,100889.47
2023-05-11T16:45:19.995Z,100881.00
2023-05-11T16:47:47.740Z,100880.31
2023-05-11T16:50:16.275Z,100882.69
2023-05-11T16:52:44.547Z,100889.22
2023-05-11T16:55:15.867Z,100887.31
2023-05-11T16:57:43.941Z,100878.19
2023-05-11T17:00:13.249Z,100887.94
2023-05-11T17:02:41.350Z,100881.97
2023-05-11T17:05:11.071Z,100882.69
2023-05-11T17:07:39.009Z,100890.97
2023-05-11T17:10:07.999Z,100881.53
2023-05-11T17:13:02.900Z,100883.78
2023-05-11T17:15:31.624Z,100895.09
2023-05-11T17:17:59.422Z,100890.44
2023-05-11T17:20:27.132Z,100893.94
2023-05-11T17:22:55.605Z,100897.13
2023-05-11T17:25:23.328Z,100892.75
2023-05-11T17:27:52.333Z,100891.50
2023-05-11T17:30:21.967Z,100904.06
2023-05-11T17:32:50.102Z,100898.25
2023-05-11T17:35:18.267Z,100903.88
2023-05-11T17:37:45.966Z,100898.25
2023-05-11T17:40:14.073Z,100908.66
2023-05-11T17:42:41.781Z,100908.53
2023-05-11T17:45:11.993Z,100908.91
2023-05-11T17:47:39.693Z,100913.63
2023-05-11T17:50:08.295Z,100905.69
2023-05-11T17:52:35.980Z,100907.47
2023-05-11T17:55:04.623Z,100903.34
2023-05-11T17:57:32.305Z,100904.41
2023-05-11T18:00:00.242Z,100910.63
2023-05-11T18:02:29.702Z,100910.22
2023-05-11T18:04:57.502Z,100909.09
2023-05-11T18:07:25.215Z,100904.66
2023-05-11T18:09:52.840Z,100909.69
2023-05-11T18:12:20.533Z,100918.25
2023-05-11T18:14:48.251Z,100910.31
2023-05-11T18:17:16.062Z,100912.59
2023-05-11T18:19:45.149Z,100911.94
2023-05-11T18:22:12.925Z,100915.72
2023-05-11T18:24:40.642Z,100918.19
2023-05-11T18:27:08.375Z,100915.84
2023-05-11T18:29:37.410Z,100912.50
2023-05-11T18:32:05.643Z,100924.97
2023-05-11T18:34:34.106Z,100923.38
2023-05-11T18:37:03.166Z,100921.94
2023-05-11T18:39:30.880Z,100924.88
2023-05-11T18:42:00.830Z,100936.16
2023-05-11T18:44:29.285Z,100934.34
2023-05-11T18:46:57.440Z,100926.69
2023-05-11T18:49:25.272Z,100938.88
2023-05-11T18:51:52.955Z,100944.25
2023-05-11T18:54:22.073Z,100941.41
2023-05-11T18:56:49.759Z,100942.47
2023-05-11T18:59:18.190Z,100938.19
2023-05-11T19:01:48.405Z,100953.88
2023-05-11T19:04:19.587Z,100952.47
2023-05-11T19:06:47.563Z,100951.16
2023-05-11T19:09:15.251Z,100961.66
2023-05-11T19:11:44.385Z,100955.78
2023-05-11T19:14:14.612Z,100953.03
2023-05-11T19:16:42.465Z,100962.19
2023-05-11T19:19:10.318Z,100962.00
2023-05-11T19:21:40.388Z,100962.13
2023-05-11T19:24:08.624Z,100966.91
2023-05-11T19:26:36.572Z,100970.50
2023-05-11T19:29:06.022Z,100974.09
2023-05-11T19:31:33.727Z,100973.91
2023-05-11T19:34:01.970Z,100975.22
2023-05-11T19:36:30.306Z,100984.31
2023-05-11T19:38:58.041Z,100979.75
2023-05-11T19:41:25.810Z,100979.56
2023-05-11T19:43:53.445Z,100982.13
2023-05-11T19:46:23.337Z,100986.19
2023-05-11T19:48:50.983Z,100986.72
2023-05-11T19:51:18.743Z,100985.06
2023-05-11T19:53:46.416Z,100989.63
2023-05-11T19:56:14.224Z,100986.19
2023-05-11T19:58:42.403Z,100994.31
2023-05-11T20:01:10.148Z,100995.25
2023-05-11T20:03:39.296Z,100993.38
2023-05-11T20:06:07.128Z,100992.34
2023-05-11T20:08:34.861Z,100996.53
2023-05-11T20:11:02.561Z,100996.38
2023-05-11T20:13:30.293Z,100993.41
2023-05-11T20:15:57.982Z,100996.63
2023-05-11T20:18:25.647Z,101003.13
2023-05-11T20:20:54.715Z,101002.44
2023-05-11T20:23:22.577Z,100996.84
2023-05-11T20:25:50.373Z,100987.75
2023-05-11T20:28:20.825Z,100995.84
2023-05-11T20:30:48.487Z,100994.28
2023-05-11T20:35:46.875Z,100993.97
2023-05-11T20:38:15.964Z,101007.16
2023-05-11T20:40:43.730Z,100993.13
2023-05-11T20:43:13.776Z,100989.38
2023-05-11T20:45:43.727Z,100988.88
2023-05-11T20:48:11.625Z,100992.38
2023-05-11T20:50:39.930Z,100991.09
2023-05-11T20:53:07.652Z,100989.72
2023-05-11T20:55:36.646Z,100994.66
2023-05-11T20:58:05.013Z,100992.28
2023-05-11T21:00:32.702Z,100981.31
2023-05-11T21:03:00.922Z,100985.13
2023-05-11T21:05:28.913Z,100985.66
2023-05-11T21:07:57.188Z,100984.59
2023-05-11T21:10:25.031Z,100977.97
2023-05-11T21:12:54.218Z,100979.84
2023-05-11T21:15:21.954Z,100984.59
2023-05-11T21:17:49.647Z,100982.22
2023-05-11T21:20:17.598Z,100986.47
2023-05-11T21:22:45.443Z,100987.69
2023-05-11T21:25:13.483Z,100979.81
2023-05-11T21:27:41.529Z,100983.75
2023-05-11T21:30:11.123Z,100984.44
2023-05-11T21:32:38.860Z,100986.31
2023-05-11T21:35:07.314Z,100992.69
2023-05-11T21:37:35.721Z,100991.94
2023-05-11T21:40:03.636Z,100993.56
2023-05-11T21:42:34.711Z,100990.31
2023-05-11T21:45:02.821Z,100993.31
2023-05-11T21:47:32.309Z,100988.34
2023-05-11T21:49:59.981Z,100989.19
2023-05-11T21:52:27.952Z,100995.38
2023-05-11T21:54:56.057Z,100986.56
2023-05-11T21:57:23.791Z,100990.41
2023-05-11T21:59:51.435Z,100989.03
2023-05-11T22:02:19.153Z,100995.72
2023-05-11T22:04:48.649Z,100984.78
2023-05-11T22:07:16.321Z,100977.28
2023-05-11T22:09:43.965Z,100987.16
2023-05-11T22:12:11.821Z,100981.44
2023-05-11T22:14:39.525Z,100981.00
2023-05-11T22:17:07.249Z,100979.22
2023-05-11T22:19:34.932Z,100979.16
2023-05-11T22:22:04.017Z,100986.47
2023-05-11T22:24:31.682Z,100977.59
2023-05-11T22:26:59.361Z,100981.00
2023-05-11T22:29:27.031Z,100990.19
2023-05-11T22:31:54.779Z,100983.91
2023-05-11T22:34:22.458Z,100988.78
2023-05-11T22:36:50.137Z,100989.97
2023-05-11T22:39:19.167Z,100989.56
2023-05-11T22:41:46.838Z,100987.16
2023-05-11T22:44:15.012Z,100990.56
2023-05-11T22:46:42.696Z,100985.63
2023-05-11T22:49:10.611Z,100986.63
2023-05-11T22:51:38.288Z,100993.44
2023-05-11T22:54:06.223Z,100992.59
2023-05-11T22:56:35.324Z,100997.78
2023-05-11T22:59:16.305Z,100996.84
2023-05-11T23:01:43.958Z,100999.31
2023-05-11T23:04:11.662Z,101006.25
2023-05-11T23:06:39.317Z,101010.34
2023-05-11T23:09:07.016Z,101012.41
2023-05-11T23:11:36.047Z,100990.47
2023-05-11T23:14:04.444Z,100994.41
2023-05-11T23:16:32.145Z,100999.69
2023-05-11T23:19:01.796Z,100996.94
2023-05-11T23:21:29.739Z,100996.28
2023-05-11T23:23:57.428Z,101000.97
2023-05-11T23:26:25.102Z,100995.16
2023-05-11T23:28:54.151Z,100996.63
2023-05-11T23:31:21.862Z,100996.25
2023-05-11T23:33:49.588Z,100995.31
2023-05-11T23:36:17.250Z,100994.38
2023-05-11T23:38:44.958Z,100997.81
2023-05-11T23:41:12.613Z,100988.19
2023-05-11T23:43:40.284Z,100987.16
2023-05-11T23:46:09.286Z,100993.72
2023-05-11T23:48:37.147Z,100993.13
2023-05-11T23:51:04.931Z,100992.94
2023-05-11T23:53:32.684Z,100989.78
2023-05-11T23:56:00.311Z,100991.66
2023-05-11T23:58:28.148Z,100989.19
